sensor_id;sensor_type;location;lat;lon;timestamp;temperature;humidity
2935;DHT22;2462;51.456;7.248;2023-05-10T07:11:33;25.90;92.30
2935;DHT22;2462;51.456;7.248;2023-05-10T07:13:58;21.90;99.40
2935;DHT22;2462;51.456;7.248;2023-05-10T07:16:24;21.90;99.40
2935;DHT22;2462;51.456;7.248;2023-05-10T07:21:16;22.00;99.30
2935;DHT22;2462;51.456;7.248;2023-05-10T07:23:41;22.00;99.30
2935;DHT22;2462;51.456;7.248;2023-05-10T07:26:07;22.10;99.40
2935;DHT22;2462;51.456;7.248;2023-05-10T07:28:34;22.00;99.40
2935;DHT22;2462;51.456;7.248;2023-05-10T07:31:02;22.10;99.40
2935;DHT22;2462;51.456;7.248;2023-05-10T07:33:28;22.10;99.40
2935;DHT22;2462;51.456;7.248;2023-05-10T07:35:53;22.20;99.30
2935;DHT22;2462;51.456;7.248;2023-05-10T07:38:19;22.30;99.30
2935;DHT22;2462;51.456;7.248;2023-05-10T07:40:44;22.30;99.40
2935;DHT22;2462;51.456;7.248;2023-05-10T07:43:10;22.30;99.40
2935;DHT22;2462;51.456;7.248;2023-05-10T07:45:35;22.40;99.40
2935;DHT22;2462;51.456;7.248;2023-05-10T07:48:01;22.50;99.40
2935;DHT22;2462;51.456;7.248;2023-05-10T07:50:27;22.60;99.10
2935;DHT22;2462;51.456;7.248;2023-05-10T07:52:52;22.80;99.10
2935;DHT22;2462;51.456;7.248;2023-05-10T07:55:18;22.90;99.10
2935;DHT22;2462;51.456;7.248;2023-05-10T07:57:44;22.90;99.10
2935;DHT22;2462;51.456;7.248;2023-05-10T08:00:12;22.90;99.00
2935;DHT22;2462;51.456;7.248;2023-05-10T08:02:39;23.00;99.10
2935;DHT22;2462;51.456;7.248;2023-05-10T08:05:05;22.90;99.10
2935;DHT22;2462;51.456;7.248;2023-05-10T08:07:31;23.00;99.10
2935;DHT22;2462;51.456;7.248;2023-05-10T08:09:57;23.10;99.00
2935;DHT22;2462;51.456;7.248;2023-05-10T08:12:22;23.10;99.00
2935;DHT22;2462;51.456;7.248;2023-05-10T08:14:48;23.20;99.00
2935;DHT22;2462;51.456;7.248;2023-05-10T08:17:13;23.30;99.00
2935;DHT22;2462;51.456;7.248;2023-05-10T08:19:39;23.30;98.80
2935;DHT22;2462;51.456;7.248;2023-05-10T08:22:04;23.40;98.90
2935;DHT22;2462;51.456;7.248;2023-05-10T08:24:30;23.40;99.00
2935;DHT22;2462;51.456;7.248;2023-05-10T08:26:56;23.50;99.00
2935;DHT22;2462;51.456;7.248;2023-05-10T08:29:21;23.50;99.00
2935;DHT22;2462;51.456;7.248;2023-05-10T08:31:47;23.50;98.90
2935;DHT22;2462;51.456;7.248;2023-05-10T08:34:12;23.50;99.00
2935;DHT22;2462;51.456;7.248;2023-05-10T08:36:38;23.50;99.00
2935;DHT22;2462;51.456;7.248;2023-05-10T08:39:03;23.50;99.10
2935;DHT22;2462;51.456;7.248;2023-05-10T08:41:29;23.50;99.50
2935;DHT22;2462;51.456;7.248;2023-05-10T08:43:56;23.60;99.10
2935;DHT22;2462;51.456;7.248;2023-05-10T08:46:23;23.60;99.00
2935;DHT22;2462;51.456;7.248;2023-05-10T08:48:50;23.70;98.90
2935;DHT22;2462;51.456;7.248;2023-05-10T08:51:22;23.80;99.00
2935;DHT22;2462;51.456;7.248;2023-05-10T08:53:52;23.90;99.00
2935;DHT22;2462;51.456;7.248;2023-05-10T08:56:17;24.00;98.70
2935;DHT22;2462;51.456;7.248;2023-05-10T08:58:43;24.10;98.70
2935;DHT22;2462;51.456;7.248;2023-05-10T09:01:09;24.20;98.70
2935;DHT22;2462;51.456;7.248;2023-05-10T09:03:35;24.30;98.70
2935;DHT22;2462;51.456;7.248;2023-05-10T09:06:03;24.40;97.90
2935;DHT22;2462;51.456;7.248;2023-05-10T09:08:30;24.50;98.30
2935;DHT22;2462;51.456;7.248;2023-05-10T09:10:56;24.60;98.40
2935;DHT22;2462;51.456;7.248;2023-05-10T09:13:23;24.60;98.20
2935;DHT22;2462;51.456;7.248;2023-05-10T09:15:49;24.60;98.10
2935;DHT22;2462;51.456;7.248;2023-05-10T09:18:15;24.60;98.10
2935;DHT22;2462;51.456;7.248;2023-05-10T09:20:41;24.60;98.10
2935;DHT22;2462;51.456;7.248;2023-05-10T09:23:06;24.60;98.10
2935;DHT22;2462;51.456;7.248;2023-05-10T09:25:32;24.60;98.10
2935;DHT22;2462;51.456;7.248;2023-05-10T09:28:01;24.60;98.20
2935;DHT22;2462;51.456;7.248;2023-05-10T09:30:29;24.60;98.20
2935;DHT22;2462;51.456;7.248;2023-05-10T09:32:56;24.70;98.70
2935;DHT22;2462;51.456;7.248;2023-05-10T09:35:24;24.70;98.40
2935;DHT22;2462;51.456;7.248;2023-05-10T09:37:52;24.80;98.30
2935;DHT22;2462;51.456;7.248;2023-05-10T09:40:27;24.90;98.20
2935;DHT22;2462;51.456;7.248;2023-05-10T09:45:27;25.00;98.00
2935;DHT22;2462;51.456;7.248;2023-05-10T09:47:53;25.10;98.10
2935;DHT22;2462;51.456;7.248;2023-05-10T09:50:19;25.10;98.20
2935;DHT22;2462;51.456;7.248;2023-05-10T09:52:46;25.10;98.00
2935;DHT22;2462;51.456;7.248;2023-05-10T09:55:12;25.20;98.00
2935;DHT22;2462;51.456;7.248;2023-05-10T09:57:38;25.20;98.10
2935;DHT22;2462;51.456;7.248;2023-05-10T10:00:05;25.20;98.20
2935;DHT22;2462;51.456;7.248;2023-05-10T10:02:31;25.20;98.30
2935;DHT22;2462;51.456;7.248;2023-05-10T10:04:57;25.20;98.00
2935;DHT22;2462;51.456;7.248;2023-05-10T10:07:23;25.20;98.00
2935;DHT22;2462;51.456;7.248;2023-05-10T10:09:50;25.20;98.00
2935;DHT22;2462;51.456;7.248;2023-05-10T10:12:16;25.30;97.90
2935;DHT22;2462;51.456;7.248;2023-05-10T10:14:42;25.30;98.00
2935;DHT22;2462;51.456;7.248;2023-05-10T10:17:09;25.30;98.00
2935;DHT22;2462;51.456;7.248;2023-05-10T10:19:35;25.30;98.10
2935;DHT22;2462;51.456;7.248;2023-05-10T10:22:01;25.40;98.00
2935;DHT22;2462;51.456;7.248;2023-05-10T10:24:26;25.50;97.80
2935;DHT22;2462;51.456;7.248;2023-05-10T10:26:53;25.50;97.90
2935;DHT22;2462;51.456;7.248;2023-05-10T10:29:47;25.60;97.90
2935;DHT22;2462;51.456;7.248;2023-05-10T10:32:27;25.70;97.70
2935;DHT22;2462;51.456;7.248;2023-05-10T10:34:54;25.90;97.70
2935;DHT22;2462;51.456;7.248;2023-05-10T10:37:20;25.90;97.50
2935;DHT22;2462;51.456;7.248;2023-05-10T10:39:48;26.10;97.60
2935;DHT22;2462;51.456;7.248;2023-05-10T10:42:14;26.20;97.40
2935;DHT22;2462;51.456;7.248;2023-05-10T10:45:12;26.30;97.50
2935;DHT22;2462;51.456;7.248;2023-05-10T10:47:38;26.40;97.30
2935;DHT22;2462;51.456;7.248;2023-05-10T10:50:06;26.40;97.30
2935;DHT22;2462;51.456;7.248;2023-05-10T10:52:37;26.60;97.20
2935;DHT22;2462;51.456;7.248;2023-05-10T10:55:06;26.60;97.10
2935;DHT22;2462;51.456;7.248;2023-05-10T10:57:47;26.70;97.10
2935;DHT22;2462;51.456;7.248;2023-05-10T11:00:21;26.50;93.10
2935;DHT22;2462;51.456;7.248;2023-05-10T11:05:33;26.00;91.10
2935;DHT22;2462;51.456;7.248;2023-05-10T11:10:36;25.40;90.70
2935;DHT22;2462;51.456;7.248;2023-05-10T11:13:07;25.10;90.80
2935;DHT22;2462;51.456;7.248;2023-05-10T11:15:38;24.70;90.30
2935;DHT22;2462;51.456;7.248;2023-05-10T11:18:27;24.60;90.70
